Laguepe — 9HAI9 — position and weather

sailwx.info

Track history (hours):
 
Tides and Currents Weather Stations Pressure Air Temp Water Temp Dewpoint Dewpoint Depression Visibility Wind Speed Wind Dir Waves Ship Positions

Laguepe

Last reported at 2017-Jun-23 08:28 UTC. Time now 2017-Jun-23 08:53 UTC.
Position N 44°19' E 008°30'.

Length 81 m; draft 3.2 m.

Type: Cargo ship. MMSI: 256681000.

Date/timePositionNaut miles runAvg speedWind from/ knotsBaromVisibWave heightAir tempDewpointWater temp
2017-Jun-23 08:28N 44°19' E 008°30'0 0.0
2017-Jun-23 07:58N 44°19' E 008°30'0 0.0
2017-Jun-23 07:28N 44°19' E 008°30'0 0.0
2017-Jun-23 06:58N 44°19' E 008°30'0 0.0
2017-Jun-23 06:28N 44°19' E 008°30'0 0.0
2017-Jun-23 05:58N 44°19' E 008°30'0 0.0
2017-Jun-23 05:28N 44°19' E 008°30'0 0.0
2017-Jun-23 04:58N 44°19' E 008°30'0 0.0
2017-Jun-23 04:28N 44°19' E 008°30'0 0.3
2017-Jun-23 04:00N 44°19' E 008°30'3 5.8
2017-Jun-23 03:30N 44°16' E 008°31'4 7.4
2017-Jun-23 03:00N 44°12' E 008°32'3 6.1
2017-Jun-23 02:30N 44°09' E 008°32'1 2.7
2017-Jun-23 02:00N 44°08' E 008°31'0 0.3
2017-Jun-23 01:28N 44°08' E 008°31'0 0.3
2017-Jun-23 00:56N 44°08' E 008°31'0 0.2
2017-Jun-23 00:30N 44°08' E 008°31'0 0.3
2017-Jun-22 23:58N 44°08' E 008°31'0 0.3
2017-Jun-22 23:30N 44°08' E 008°31'2 4.1
2017-Jun-22 22:56N 44°06' E 008°28'28 8.8
2017-Jun-22 19:47N 43°47' E 007°60'12 8.3
2017-Jun-22 18:24N 43°41' E 007°47'25 8.2
2017-Jun-22 15:23N 43°27' E 007°19'4 8.3
2017-Jun-22 14:57N 43°25' E 007°15'4 8.2
2017-Jun-22 14:30N 43°22' E 007°11'28 8.4
2017-Jun-22 11:11N 43°07' E 006°38'74 7.0
2017-Jun-22 00:37N 43°21' E 004°58'1 8.6
2017-Jun-22 00:29N 43°22' E 004°57'11 4.9
2017-Jun-21 22:18N 43°28' E 004°45'  
2017-Jun-18 04:45N 43°28' E 004°45'6 2.9
2017-Jun-18 02:45N 43°23' E 004°48'0 0.0
2017-Jun-18 00:45N 43°23' E 004°48'0 0.0
2017-Jun-17 22:55N 43°23' E 004°48'0 0.0
2017-Jun-17 20:46N 43°23' E 004°48'0 0.0
2017-Jun-17 18:46N 43°23' E 004°48'0 0.0
2017-Jun-17 16:47N 43°23' E 004°48'6 3.5
2017-Jun-17 15:10N 43°23' E 004°56'1 8.4
2017-Jun-17 15:00N 43°23' E 004°58'6 5.3
2017-Jun-17 13:53N 43°17' E 005°02'5 4.6
2017-Jun-17 12:47N 43°14' E 005°07'52 7.0
2017-Jun-17 05:22N 42°57' E 006°14'8 8.9
2017-Jun-17 04:29N 42°57' E 006°25'5 8.4
2017-Jun-17 03:51N 42°59' E 006°32'3 9.1
2017-Jun-17 03:28N 43°01' E 006°35'5 9.5
2017-Jun-17 03:00N 43°03' E 006°40'19 9.8
2017-Jun-17 01:04N 43°15' E 007°01'1 9.8
2017-Jun-17 01:00N 43°15' E 007°02'5 9.9
2017-Jun-17 00:30N 43°18' E 007°07'5 9.8
2017-Jun-17 00:01N 43°21' E 007°12'5 9.7
2017-Jun-16 23:30N 43°24' E 007°17'5 9.4
2017-Jun-16 23:00N 43°28' E 007°22'5 9.5
2017-Jun-16 22:30N 43°31' E 007°26'5 9.7
2017-Jun-16 22:00N 43°34' E 007°32'5 9.7
2017-Jun-16 21:30N 43°36' E 007°38'5 9.8
2017-Jun-16 21:01N 43°39' E 007°43'5 9.7
2017-Jun-16 20:29N 43°42' E 007°49'5 9.7
2017-Jun-16 20:00N 43°45' E 007°54'5 9.4
2017-Jun-16 19:30N 43°48' E 007°59'5 9.1
2017-Jun-16 19:00N 43°50' E 008°04'5 9.0
2017-Jun-16 18:30N 43°53' E 008°09'4 8.8
2017-Jun-16 18:00N 43°56' E 008°14'11 8.7
2017-Jun-16 16:42N 44°05' E 008°24'2 8.6
2017-Jun-16 16:29N 44°07' E 008°25'4 8.7
2017-Jun-16 16:00N 44°10' E 008°28'4 8.4
2017-Jun-16 15:30N 44°14' E 008°31'4 8.7
2017-Jun-16 15:00N 44°18' E 008°31'1 1.1
2017-Jun-16 13:47N 44°19' E 008°30'0 0.0
2017-Jun-16 13:23N 44°19' E 008°30'0 0.0
2017-Jun-16 12:59N 44°19' E 008°30'0 0.0
2017-Jun-16 12:29N 44°19' E 008°30'0 0.0
2017-Jun-16 11:56N 44°19' E 008°30'0 0.0
2017-Jun-16 11:26N 44°19' E 008°30'0 0.0
2017-Jun-16 10:56N 44°19' E 008°30'0 0.0
2017-Jun-16 10:26N 44°19' E 008°30'0 0.0
2017-Jun-16 09:56N 44°19' E 008°30'0 0.0
2017-Jun-16 09:20N 44°19' E 008°30'0 0.0
2017-Jun-16 08:56N 44°19' E 008°30'0 0.0
2017-Jun-16 08:26N 44°19' E 008°30'0 0.0
2017-Jun-16 07:56N 44°19' E 008°30'0 0.0
2017-Jun-16 07:14N 44°19' E 008°30'0 0.0
2017-Jun-16 06:56N 44°19' E 008°30'0 0.0
2017-Jun-16 06:26N 44°19' E 008°30'0 0.0
2017-Jun-16 05:56N 44°19' E 008°30'0 0.0
2017-Jun-16 05:26N 44°19' E 008°30'0 0.0
2017-Jun-16 04:56N 44°19' E 008°30'0 0.0
2017-Jun-16 04:28N 44°19' E 008°30'0 0.6
2017-Jun-16 04:00N 44°19' E 008°30'2 5.0
2017-Jun-16 03:30N 44°17' E 008°31'3 6.6
2017-Jun-16 03:00N 44°13' E 008°32'3 5.1
2017-Jun-16 02:31N 44°11' E 008°32'2 4.0
2017-Jun-16 02:00N 44°09' E 008°32'0 0.5
2017-Jun-16 01:29N 44°09' E 008°32'0 0.1
2017-Jun-16 01:01N 44°09' E 008°32'0 0.1
2017-Jun-16 00:31N 44°09' E 008°32'0 0.1
2017-Jun-16 00:00N 44°09' E 008°32'0 0.1
2017-Jun-15 23:30N 44°09' E 008°32'0 0.2
2017-Jun-15 23:00N 44°09' E 008°32'0 0.2
2017-Jun-15 22:30N 44°09' E 008°32'0 0.2
2017-Jun-15 22:00N 44°09' E 008°31'0 0.2
2017-Jun-15 21:30N 44°09' E 008°31'0 0.3
2017-Jun-15 20:59N 44°09' E 008°31'0 0.4
2017-Jun-15 20:30N 44°09' E 008°31'0 0.4
2017-Jun-15 20:00N 44°09' E 008°31'0 0.3
2017-Jun-15 19:30N 44°09' E 008°31'1 1.3
2017-Jun-15 19:01N 44°08' E 008°30'4 8.6
2017-Jun-15 18:30N 44°05' E 008°25'4 8.7
2017-Jun-15 18:00N 44°02' E 008°21'15 8.6
2017-Jun-15 16:16N 43°51' E 008°07'4 8.2
2017-Jun-15 15:47N 43°49' E 008°03'3 8.2
2017-Jun-15 15:28N 43°48' E 007°60'4 8.2
2017-Jun-15 14:59N 43°45' E 007°55'30 7.4
2017-Jun-15 10:55N 43°26' E 007°23'6 5.2
2017-Jun-15 09:42N 43°22' E 007°16'2 7.3
2017-Jun-15 09:27N 43°21' E 007°14'3 7.4
2017-Jun-15 09:00N 43°19' E 007°11'4 7.4
2017-Jun-15 08:30N 43°17' E 007°07'53 7.0
2017-Jun-15 00:57N 42°58' E 005°59'5 7.5
2017-Jun-15 00:19N 42°60' E 005°53'10 7.6
2017-Jun-14 23:03N 43°03' E 005°40'1 7.5
2017-Jun-14 22:55N 43°03' E 005°39'16 7.8
2017-Jun-14 20:55N 43°08' E 005°19'3 7.7
2017-Jun-14 20:30N 43°09' E 005°14'12 7.9
2017-Jun-14 18:58N 43°17' E 005°02'5 8.0
2017-Jun-14 18:19N 43°21' E 004°58'7 5.2
2017-Jun-14 16:59N 43°23' E 004°49'3 1.5
2017-Jun-14 14:59N 43°25' E 004°45'  
Track history (hours):
 
Tides and Currents Weather Stations Pressure Air Temp Water Temp Dewpoint Dewpoint Depression Visibility Wind Speed Wind Dir Waves Ship Positions

Laguepe

Last reported at 2017-Jun-23 08:28 UTC. Time now 2017-Jun-23 08:53 UTC.
Position N 44°19' E 008°30'.

Length 81 m; draft 3.2 m.

Type: Cargo ship. MMSI: 256681000.

Date/timePositionNaut miles runAvg speedWind from/ knotsBaromVisibWave heightAir tempDewpointWater temp
2017-Jun-23 08:28N 44°19' E 008°30'0 0.0
2017-Jun-23 07:58N 44°19' E 008°30'0 0.0
2017-Jun-23 07:28N 44°19' E 008°30'0 0.0
2017-Jun-23 06:58N 44°19' E 008°30'0 0.0
2017-Jun-23 06:28N 44°19' E 008°30'0 0.0
2017-Jun-23 05:58N 44°19' E 008°30'0 0.0
2017-Jun-23 05:28N 44°19' E 008°30'0 0.0
2017-Jun-23 04:58N 44°19' E 008°30'0 0.0
2017-Jun-23 04:28N 44°19' E 008°30'0 0.3
2017-Jun-23 04:00N 44°19' E 008°30'3 5.8
2017-Jun-23 03:30N 44°16' E 008°31'4 7.4
2017-Jun-23 03:00N 44°12' E 008°32'3 6.1
2017-Jun-23 02:30N 44°09' E 008°32'1 2.7
2017-Jun-23 02:00N 44°08' E 008°31'0 0.3
2017-Jun-23 01:28N 44°08' E 008°31'0 0.3
2017-Jun-23 00:56N 44°08' E 008°31'0 0.2
2017-Jun-23 00:30N 44°08' E 008°31'0 0.3
2017-Jun-22 23:58N 44°08' E 008°31'0 0.3
2017-Jun-22 23:30N 44°08' E 008°31'2 4.1
2017-Jun-22 22:56N 44°06' E 008°28'28 8.8
2017-Jun-22 19:47N 43°47' E 007°60'12 8.3
2017-Jun-22 18:24N 43°41' E 007°47'25 8.2
2017-Jun-22 15:23N 43°27' E 007°19'4 8.3
2017-Jun-22 14:57N 43°25' E 007°15'4 8.2
2017-Jun-22 14:30N 43°22' E 007°11'28 8.4
2017-Jun-22 11:11N 43°07' E 006°38'74 7.0
2017-Jun-22 00:37N 43°21' E 004°58'1 8.6
2017-Jun-22 00:29N 43°22' E 004°57'11 4.9
2017-Jun-21 22:18N 43°28' E 004°45'  
2017-Jun-18 04:45N 43°28' E 004°45'6 2.9
2017-Jun-18 02:45N 43°23' E 004°48'0 0.0
2017-Jun-18 00:45N 43°23' E 004°48'0 0.0
2017-Jun-17 22:55N 43°23' E 004°48'0 0.0
2017-Jun-17 20:46N 43°23' E 004°48'0 0.0
2017-Jun-17 18:46N 43°23' E 004°48'0 0.0
2017-Jun-17 16:47N 43°23' E 004°48'6 3.5
2017-Jun-17 15:10N 43°23' E 004°56'1 8.4
2017-Jun-17 15:00N 43°23' E 004°58'6 5.3
2017-Jun-17 13:53N 43°17' E 005°02'5 4.6
2017-Jun-17 12:47N 43°14' E 005°07'52 7.0
2017-Jun-17 05:22N 42°57' E 006°14'8 8.9
2017-Jun-17 04:29N 42°57' E 006°25'5 8.4
2017-Jun-17 03:51N 42°59' E 006°32'3 9.1
2017-Jun-17 03:28N 43°01' E 006°35'5 9.5
2017-Jun-17 03:00N 43°03' E 006°40'19 9.8
2017-Jun-17 01:04N 43°15' E 007°01'1 9.8
2017-Jun-17 01:00N 43°15' E 007°02'5 9.9
2017-Jun-17 00:30N 43°18' E 007°07'5 9.8
2017-Jun-17 00:01N 43°21' E 007°12'5 9.7
2017-Jun-16 23:30N 43°24' E 007°17'5 9.4
2017-Jun-16 23:00N 43°28' E 007°22'5 9.5
2017-Jun-16 22:30N 43°31' E 007°26'5 9.7
2017-Jun-16 22:00N 43°34' E 007°32'5 9.7
2017-Jun-16 21:30N 43°36' E 007°38'5 9.8
2017-Jun-16 21:01N 43°39' E 007°43'5 9.7
2017-Jun-16 20:29N 43°42' E 007°49'5 9.7
2017-Jun-16 20:00N 43°45' E 007°54'5 9.4
2017-Jun-16 19:30N 43°48' E 007°59'5 9.1
2017-Jun-16 19:00N 43°50' E 008°04'5 9.0
2017-Jun-16 18:30N 43°53' E 008°09'4 8.8
2017-Jun-16 18:00N 43°56' E 008°14'11 8.7
2017-Jun-16 16:42N 44°05' E 008°24'2 8.6
2017-Jun-16 16:29N 44°07' E 008°25'4 8.7
2017-Jun-16 16:00N 44°10' E 008°28'4 8.4
2017-Jun-16 15:30N 44°14' E 008°31'4 8.7
2017-Jun-16 15:00N 44°18' E 008°31'1 1.1
2017-Jun-16 13:47N 44°19' E 008°30'0 0.0
2017-Jun-16 13:23N 44°19' E 008°30'0 0.0
2017-Jun-16 12:59N 44°19' E 008°30'0 0.0
2017-Jun-16 12:29N 44°19' E 008°30'0 0.0
2017-Jun-16 11:56N 44°19' E 008°30'0 0.0
2017-Jun-16 11:26N 44°19' E 008°30'0 0.0
2017-Jun-16 10:56N 44°19' E 008°30'0 0.0
2017-Jun-16 10:26N 44°19' E 008°30'0 0.0
2017-Jun-16 09:56N 44°19' E 008°30'0 0.0
2017-Jun-16 09:20N 44°19' E 008°30'0 0.0
2017-Jun-16 08:56N 44°19' E 008°30'0 0.0
2017-Jun-16 08:26N 44°19' E 008°30'0 0.0
2017-Jun-16 07:56N 44°19' E 008°30'0 0.0
2017-Jun-16 07:14N 44°19' E 008°30'0 0.0
2017-Jun-16 06:56N 44°19' E 008°30'0 0.0
2017-Jun-16 06:26N 44°19' E 008°30'0 0.0
2017-Jun-16 05:56N 44°19' E 008°30'0 0.0
2017-Jun-16 05:26N 44°19' E 008°30'0 0.0
2017-Jun-16 04:56N 44°19' E 008°30'0 0.0
2017-Jun-16 04:28N 44°19' E 008°30'0 0.6
2017-Jun-16 04:00N 44°19' E 008°30'2 5.0
2017-Jun-16 03:30N 44°17' E 008°31'3 6.6
2017-Jun-16 03:00N 44°13' E 008°32'3 5.1
2017-Jun-16 02:31N 44°11' E 008°32'2 4.0
2017-Jun-16 02:00N 44°09' E 008°32'0 0.5
2017-Jun-16 01:29N 44°09' E 008°32'0 0.1
2017-Jun-16 01:01N 44°09' E 008°32'0 0.1
2017-Jun-16 00:31N 44°09' E 008°32'0 0.1
2017-Jun-16 00:00N 44°09' E 008°32'0 0.1
2017-Jun-15 23:30N 44°09' E 008°32'0 0.2
2017-Jun-15 23:00N 44°09' E 008°32'0 0.2
2017-Jun-15 22:30N 44°09' E 008°32'0 0.2
2017-Jun-15 22:00N 44°09' E 008°31'0 0.2
2017-Jun-15 21:30N 44°09' E 008°31'0 0.3
2017-Jun-15 20:59N 44°09' E 008°31'0 0.4
2017-Jun-15 20:30N 44°09' E 008°31'0 0.4
2017-Jun-15 20:00N 44°09' E 008°31'0 0.3
2017-Jun-15 19:30N 44°09' E 008°31'1 1.3
2017-Jun-15 19:01N 44°08' E 008°30'4 8.6
2017-Jun-15 18:30N 44°05' E 008°25'4 8.7
2017-Jun-15 18:00N 44°02' E 008°21'15 8.6
2017-Jun-15 16:16N 43°51' E 008°07'4 8.2
2017-Jun-15 15:47N 43°49' E 008°03'3 8.2
2017-Jun-15 15:28N 43°48' E 007°60'4 8.2
2017-Jun-15 14:59N 43°45' E 007°55'30 7.4
2017-Jun-15 10:55N 43°26' E 007°23'6 5.2
2017-Jun-15 09:42N 43°22' E 007°16'2 7.3
2017-Jun-15 09:27N 43°21' E 007°14'3 7.4
2017-Jun-15 09:00N 43°19' E 007°11'4 7.4
2017-Jun-15 08:30N 43°17' E 007°07'53 7.0
2017-Jun-15 00:57N 42°58' E 005°59'5 7.5
2017-Jun-15 00:19N 42°60' E 005°53'10 7.6
2017-Jun-14 23:03N 43°03' E 005°40'1 7.5
2017-Jun-14 22:55N 43°03' E 005°39'16 7.8
2017-Jun-14 20:55N 43°08' E 005°19'3 7.7
2017-Jun-14 20:30N 43°09' E 005°14'12 7.9
2017-Jun-14 18:58N 43°17' E 005°02'5 8.0
2017-Jun-14 18:19N 43°21' E 004°58'7 5.2
2017-Jun-14 16:59N 43°23' E 004°49'3 1.5
2017-Jun-14 14:59N 43°25' E 004°45'  

Dump ship's entire track history